sensor_id;sensor_type;location;lat;lon;timestamp;P1;durP1;ratioP1;P2;durP2;ratioP2
14474;SDS011;7323;50.848;4.334;2022-12-18T00:01:18;26.37;;;17.53;;
14474;SDS011;7323;50.848;4.334;2022-12-18T00:03:46;25.53;;;17.60;;
14474;SDS011;7323;50.848;4.334;2022-12-18T00:06:12;25.50;;;17.80;;
14474;SDS011;7323;50.848;4.334;2022-12-18T00:08:39;36.53;;;21.90;;
14474;SDS011;7323;50.848;4.334;2022-12-18T00:11:06;39.73;;;24.70;;
14474;SDS011;7323;50.848;4.334;2022-12-18T00:13:33;38.30;;;25.37;;
14474;SDS011;7323;50.848;4.334;2022-12-18T00:16:02;38.53;;;25.30;;
14474;SDS011;7323;50.848;4.334;2022-12-18T00:18:28;39.77;;;25.47;;
14474;SDS011;7323;50.848;4.334;2022-12-18T00:20:57;40.87;;;25.23;;
14474;SDS011;7323;50.848;4.334;2022-12-18T00:23:24;40.23;;;24.80;;
14474;SDS011;7323;50.848;4.334;2022-12-18T00:25:49;39.90;;;26.53;;
14474;SDS011;7323;50.848;4.334;2022-12-18T00:28:15;37.47;;;23.43;;
14474;SDS011;7323;50.848;4.334;2022-12-18T00:30:41;40.23;;;25.97;;
14474;SDS011;7323;50.848;4.334;2022-12-18T00:33:06;39.33;;;25.10;;
14474;SDS011;7323;50.848;4.334;2022-12-18T00:35:32;41.97;;;27.30;;
14474;SDS011;7323;50.848;4.334;2022-12-18T00:37:58;41.70;;;26.00;;
14474;SDS011;7323;50.848;4.334;2022-12-18T00:40:23;40.07;;;25.80;;
14474;SDS011;7323;50.848;4.334;2022-12-18T00:42:49;39.60;;;25.37;;
14474;SDS011;7323;50.848;4.334;2022-12-18T00:45:21;38.33;;;25.60;;
14474;SDS011;7323;50.848;4.334;2022-12-18T00:47:48;40.57;;;26.17;;
14474;SDS011;7323;50.848;4.334;2022-12-18T00:50:13;35.97;;;24.97;;
14474;SDS011;7323;50.848;4.334;2022-12-18T00:52:39;31.83;;;22.03;;
14474;SDS011;7323;50.848;4.334;2022-12-18T00:55:05;29.90;;;19.30;;
14474;SDS011;7323;50.848;4.334;2022-12-18T00:57:31;28.37;;;20.37;;
14474;SDS011;7323;50.848;4.334;2022-12-18T00:59:56;30.77;;;20.73;;
14474;SDS011;7323;50.848;4.334;2022-12-18T01:02:22;28.40;;;18.63;;
14474;SDS011;7323;50.848;4.334;2022-12-18T01:04:48;28.53;;;19.93;;
14474;SDS011;7323;50.848;4.334;2022-12-18T01:07:14;26.83;;;18.30;;
14474;SDS011;7323;50.848;4.334;2022-12-18T01:09:39;23.33;;;17.17;;
14474;SDS011;7323;50.848;4.334;2022-12-18T01:12:05;22.40;;;16.23;;
14474;SDS011;7323;50.848;4.334;2022-12-18T01:14:31;23.57;;;15.93;;
14474;SDS011;7323;50.848;4.334;2022-12-18T01:16:57;21.37;;;14.37;;
14474;SDS011;7323;50.848;4.334;2022-12-18T01:19:23;21.67;;;14.37;;
14474;SDS011;7323;50.848;4.334;2022-12-18T01:21:48;18.90;;;13.43;;
14474;SDS011;7323;50.848;4.334;2022-12-18T01:24:14;18.93;;;13.00;;
14474;SDS011;7323;50.848;4.334;2022-12-18T01:26:40;21.13;;;14.47;;
14474;SDS011;7323;50.848;4.334;2022-12-18T01:29:06;23.83;;;16.23;;
14474;SDS011;7323;50.848;4.334;2022-12-18T01:31:32;28.23;;;19.90;;
14474;SDS011;7323;50.848;4.334;2022-12-18T01:34:02;27.70;;;17.50;;
14474;SDS011;7323;50.848;4.334;2022-12-18T01:36:30;28.70;;;19.20;;
14474;SDS011;7323;50.848;4.334;2022-12-18T01:39:05;26.93;;;17.20;;
14474;SDS011;7323;50.848;4.334;2022-12-18T01:41:35;17.63;;;12.63;;
14474;SDS011;7323;50.848;4.334;2022-12-18T01:49:59;16.80;;;11.83;;
14474;SDS011;7323;50.848;4.334;2022-12-18T01:52:32;17.17;;;11.97;;
14474;SDS011;7323;50.848;4.334;2022-12-18T01:54:58;17.13;;;11.13;;
14474;SDS011;7323;50.848;4.334;2022-12-18T01:57:26;17.87;;;12.63;;
14474;SDS011;7323;50.848;4.334;2022-12-18T01:59:53;20.53;;;13.70;;
14474;SDS011;7323;50.848;4.334;2022-12-18T02:02:24;19.80;;;13.53;;
14474;SDS011;7323;50.848;4.334;2022-12-18T02:04:54;21.40;;;14.27;;
14474;SDS011;7323;50.848;4.334;2022-12-18T02:07:24;24.23;;;15.93;;
14474;SDS011;7323;50.848;4.334;2022-12-18T02:10:00;22.57;;;16.00;;
14474;SDS011;7323;50.848;4.334;2022-12-18T02:12:52;26.33;;;17.00;;
14474;SDS011;7323;50.848;4.334;2022-12-18T02:18:07;27.17;;;17.83;;
14474;SDS011;7323;50.848;4.334;2022-12-18T02:20:45;28.97;;;18.10;;
14474;SDS011;7323;50.848;4.334;2022-12-18T02:29:24;25.67;;;17.63;;
14474;SDS011;7323;50.848;4.334;2022-12-18T02:31:55;24.63;;;17.27;;
14474;SDS011;7323;50.848;4.334;2022-12-18T02:34:32;27.83;;;18.37;;
14474;SDS011;7323;50.848;4.334;2022-12-18T02:37:02;26.93;;;17.53;;
14474;SDS011;7323;50.848;4.334;2022-12-18T02:39:30;27.80;;;17.27;;
14474;SDS011;7323;50.848;4.334;2022-12-18T02:41:58;24.93;;;17.27;;
14474;SDS011;7323;50.848;4.334;2022-12-18T02:44:27;29.27;;;18.83;;
14474;SDS011;7323;50.848;4.334;2022-12-18T02:46:53;28.73;;;18.10;;
14474;SDS011;7323;50.848;4.334;2022-12-18T02:55:01;29.47;;;18.00;;
14474;SDS011;7323;50.848;4.334;2022-12-18T02:57:54;29.37;;;19.23;;
14474;SDS011;7323;50.848;4.334;2022-12-18T03:00:28;27.33;;;18.47;;
14474;SDS011;7323;50.848;4.334;2022-12-18T03:03:14;30.40;;;18.97;;
14474;SDS011;7323;50.848;4.334;2022-12-18T03:05:49;26.37;;;17.60;;
14474;SDS011;7323;50.848;4.334;2022-12-18T03:08:22;27.77;;;17.17;;
14474;SDS011;7323;50.848;4.334;2022-12-18T03:10:58;26.67;;;17.20;;
14474;SDS011;7323;50.848;4.334;2022-12-18T03:16:06;25.87;;;16.63;;
14474;SDS011;7323;50.848;4.334;2022-12-18T03:18:36;25.20;;;16.33;;
14474;SDS011;7323;50.848;4.334;2022-12-18T03:21:08;27.23;;;17.57;;
14474;SDS011;7323;50.848;4.334;2022-12-18T03:23:38;28.80;;;18.97;;
14474;SDS011;7323;50.848;4.334;2022-12-18T03:26:08;23.77;;;16.63;;
14474;SDS011;7323;50.848;4.334;2022-12-18T03:28:37;24.50;;;16.20;;
14474;SDS011;7323;50.848;4.334;2022-12-18T03:31:11;25.63;;;16.37;;
14474;SDS011;7323;50.848;4.334;2022-12-18T03:33:43;25.73;;;15.30;;
14474;SDS011;7323;50.848;4.334;2022-12-18T03:36:11;23.20;;;15.10;;
14474;SDS011;7323;50.848;4.334;2022-12-18T03:38:37;21.03;;;14.07;;
14474;SDS011;7323;50.848;4.334;2022-12-18T03:41:07;21.47;;;14.03;;
14474;SDS011;7323;50.848;4.334;2022-12-18T03:49:30;19.43;;;13.23;;
14474;SDS011;7323;50.848;4.334;2022-12-18T03:52:20;21.37;;;14.07;;
14474;SDS011;7323;50.848;4.334;2022-12-18T03:54:52;20.53;;;14.03;;
14474;SDS011;7323;50.848;4.334;2022-12-18T03:57:20;23.27;;;14.00;;
14474;SDS011;7323;50.848;4.334;2022-12-18T03:59:50;20.07;;;13.90;;
14474;SDS011;7323;50.848;4.334;2022-12-18T04:02:21;23.37;;;14.73;;
14474;SDS011;7323;50.848;4.334;2022-12-18T04:04:50;21.67;;;14.10;;
14474;SDS011;7323;50.848;4.334;2022-12-18T04:07:18;21.80;;;13.23;;
14474;SDS011;7323;50.848;4.334;2022-12-18T04:09:45;21.77;;;14.13;;
14474;SDS011;7323;50.848;4.334;2022-12-18T04:12:13;20.73;;;13.97;;
14474;SDS011;7323;50.848;4.334;2022-12-18T04:14:39;19.97;;;13.13;;
14474;SDS011;7323;50.848;4.334;2022-12-18T04:17:04;21.10;;;13.93;;
14474;SDS011;7323;50.848;4.334;2022-12-18T04:19:30;20.20;;;13.73;;
14474;SDS011;7323;50.848;4.334;2022-12-18T04:21:56;20.20;;;14.07;;
14474;SDS011;7323;50.848;4.334;2022-12-18T04:24:21;18.87;;;13.13;;
14474;SDS011;7323;50.848;4.334;2022-12-18T04:26:47;17.83;;;12.80;;
14474;SDS011;7323;50.848;4.334;2022-12-18T04:29:13;21.63;;;14.87;;
14474;SDS011;7323;50.848;4.334;2022-12-18T04:31:38;19.70;;;13.43;;
14474;SDS011;7323;50.848;4.334;2022-12-18T04:34:04;23.10;;;13.87;;
14474;SDS011;7323;50.848;4.334;2022-12-18T04:36:30;19.33;;;13.00;;
14474;SDS011;7323;50.848;4.334;2022-12-18T04:38:55;20.07;;;13.37;;
14474;SDS011;7323;50.848;4.334;2022-12-18T04:41:21;19.97;;;13.97;;
14474;SDS011;7323;50.848;4.334;2022-12-18T04:43:47;21.27;;;13.77;;
14474;SDS011;7323;50.848;4.334;2022-12-18T04:46:12;21.20;;;13.90;;
14474;SDS011;7323;50.848;4.334;2022-12-18T04:48:38;19.00;;;13.43;;
14474;SDS011;7323;50.848;4.334;2022-12-18T04:51:04;22.40;;;13.60;;
14474;SDS011;7323;50.848;4.334;2022-12-18T04:53:30;21.87;;;13.97;;
14474;SDS011;7323;50.848;4.334;2022-12-18T04:56:06;19.43;;;12.83;;
14474;SDS011;7323;50.848;4.334;2022-12-18T04:58:39;23.60;;;14.53;;
14474;SDS011;7323;50.848;4.334;2022-12-18T05:01:07;22.33;;;14.43;;
14474;SDS011;7323;50.848;4.334;2022-12-18T05:03:33;22.83;;;14.27;;
14474;SDS011;7323;50.848;4.334;2022-12-18T05:06:01;23.13;;;15.10;;
14474;SDS011;7323;50.848;4.334;2022-12-18T05:11:35;22.43;;;13.53;;
14474;SDS011;7323;50.848;4.334;2022-12-18T05:14:01;21.60;;;12.77;;
14474;SDS011;7323;50.848;4.334;2022-12-18T05:16:27;21.77;;;14.03;;
14474;SDS011;7323;50.848;4.334;2022-12-18T05:18:52;20.77;;;13.47;;
14474;SDS011;7323;50.848;4.334;2022-12-18T05:21:18;22.97;;;12.53;;
14474;SDS011;7323;50.848;4.334;2022-12-18T05:23:44;21.47;;;12.90;;
14474;SDS011;7323;50.848;4.334;2022-12-18T05:26:09;20.40;;;13.63;;
14474;SDS011;7323;50.848;4.334;2022-12-18T05:28:41;20.23;;;12.80;;
14474;SDS011;7323;50.848;4.334;2022-12-18T05:31:08;21.93;;;13.47;;
14474;SDS011;7323;50.848;4.334;2022-12-18T05:33:34;20.53;;;12.43;;
14474;SDS011;7323;50.848;4.334;2022-12-18T05:36:01;20.93;;;13.93;;
14474;SDS011;7323;50.848;4.334;2022-12-18T05:38:28;17.27;;;11.27;;
14474;SDS011;7323;50.848;4.334;2022-12-18T05:40:55;17.70;;;12.73;;
14474;SDS011;7323;50.848;4.334;2022-12-18T05:43:21;22.57;;;13.50;;
14474;SDS011;7323;50.848;4.334;2022-12-18T05:45:49;19.43;;;13.03;;
14474;SDS011;7323;50.848;4.334;2022-12-18T05:48:16;19.03;;;13.60;;
14474;SDS011;7323;50.848;4.334;2022-12-18T05:50:43;19.60;;;12.43;;
14474;SDS011;7323;50.848;4.334;2022-12-18T05:53:10;19.90;;;12.43;;
14474;SDS011;7323;50.848;4.334;2022-12-18T05:55:37;18.87;;;12.57;;
14474;SDS011;7323;50.848;4.334;2022-12-18T05:58:05;20.27;;;12.63;;
14474;SDS011;7323;50.848;4.334;2022-12-18T06:00:32;19.37;;;12.83;;
14474;SDS011;7323;50.848;4.334;2022-12-18T06:03:00;18.87;;;11.87;;
14474;SDS011;7323;50.848;4.334;2022-12-18T06:05:26;17.97;;;11.63;;
14474;SDS011;7323;50.848;4.334;2022-12-18T06:07:52;17.10;;;12.07;;
14474;SDS011;7323;50.848;4.334;2022-12-18T06:10:18;18.70;;;11.77;;
14474;SDS011;7323;50.848;4.334;2022-12-18T06:12:44;20.67;;;12.57;;
14474;SDS011;7323;50.848;4.334;2022-12-18T06:15:10;23.53;;;13.67;;
14474;SDS011;7323;50.848;4.334;2022-12-18T06:17:35;21.60;;;12.80;;
14474;SDS011;7323;50.848;4.334;2022-12-18T06:20:02;20.10;;;12.00;;
14474;SDS011;7323;50.848;4.334;2022-12-18T06:22:30;17.13;;;11.63;;
14474;SDS011;7323;50.848;4.334;2022-12-18T06:24:56;19.27;;;12.50;;
14474;SDS011;7323;50.848;4.334;2022-12-18T06:27:22;18.53;;;11.97;;
14474;SDS011;7323;50.848;4.334;2022-12-18T06:29:48;17.93;;;11.47;;
14474;SDS011;7323;50.848;4.334;2022-12-18T06:32:13;16.50;;;11.40;;
14474;SDS011;7323;50.848;4.334;2022-12-18T06:34:39;19.03;;;12.10;;
14474;SDS011;7323;50.848;4.334;2022-12-18T06:37:05;17.57;;;11.03;;
14474;SDS011;7323;50.848;4.334;2022-12-18T06:39:30;16.50;;;11.17;;
14474;SDS011;7323;50.848;4.334;2022-12-18T06:41:56;14.93;;;9.87;;
14474;SDS011;7323;50.848;4.334;2022-12-18T06:44:22;15.43;;;10.00;;
14474;SDS011;7323;50.848;4.334;2022-12-18T06:46:47;15.10;;;10.00;;
14474;SDS011;7323;50.848;4.334;2022-12-18T06:49:13;15.50;;;10.67;;
14474;SDS011;7323;50.848;4.334;2022-12-18T06:51:39;16.73;;;11.73;;
14474;SDS011;7323;50.848;4.334;2022-12-18T06:54:04;15.97;;;10.53;;
14474;SDS011;7323;50.848;4.334;2022-12-18T06:56:30;17.60;;;10.50;;
14474;SDS011;7323;50.848;4.334;2022-12-18T06:58:56;11.27;;;7.50;;
14474;SDS011;7323;50.848;4.334;2022-12-18T07:01:22;10.23;;;7.20;;
14474;SDS011;7323;50.848;4.334;2022-12-18T07:03:51;10.67;;;7.03;;
14474;SDS011;7323;50.848;4.334;2022-12-18T07:06:19;9.97;;;6.50;;
14474;SDS011;7323;50.848;4.334;2022-12-18T07:08:47;9.03;;;6.70;;
14474;SDS011;7323;50.848;4.334;2022-12-18T07:11:13;11.10;;;6.57;;
14474;SDS011;7323;50.848;4.334;2022-12-18T07:13:40;8.83;;;6.90;;
14474;SDS011;7323;50.848;4.334;2022-12-18T07:16:11;9.47;;;6.40;;
14474;SDS011;7323;50.848;4.334;2022-12-18T07:18:38;11.87;;;7.70;;
14474;SDS011;7323;50.848;4.334;2022-12-18T07:21:08;9.90;;;7.13;;
14474;SDS011;7323;50.848;4.334;2022-12-18T07:23:35;10.83;;;6.73;;
14474;SDS011;7323;50.848;4.334;2022-12-18T07:26:05;11.63;;;7.33;;
14474;SDS011;7323;50.848;4.334;2022-12-18T07:28:35;9.60;;;6.50;;
14474;SDS011;7323;50.848;4.334;2022-12-18T07:31:11;10.47;;;7.03;;
14474;SDS011;7323;50.848;4.334;2022-12-18T07:33:45;9.67;;;6.87;;
14474;SDS011;7323;50.848;4.334;2022-12-18T07:36:11;12.47;;;7.03;;
14474;SDS011;7323;50.848;4.334;2022-12-18T07:38:37;10.43;;;7.20;;
14474;SDS011;7323;50.848;4.334;2022-12-18T07:41:08;9.63;;;6.30;;
14474;SDS011;7323;50.848;4.334;2022-12-18T07:43:42;10.27;;;6.83;;
14474;SDS011;7323;50.848;4.334;2022-12-18T07:46:08;10.57;;;6.80;;
14474;SDS011;7323;50.848;4.334;2022-12-18T07:48:35;8.03;;;5.50;;
14474;SDS011;7323;50.848;4.334;2022-12-18T07:51:02;8.83;;;6.53;;
14474;SDS011;7323;50.848;4.334;2022-12-18T07:53:29;9.87;;;7.00;;
14474;SDS011;7323;50.848;4.334;2022-12-18T07:55:56;10.00;;;6.33;;
14474;SDS011;7323;50.848;4.334;2022-12-18T07:58:23;9.80;;;6.90;;
14474;SDS011;7323;50.848;4.334;2022-12-18T08:00:49;9.93;;;7.23;;
14474;SDS011;7323;50.848;4.334;2022-12-18T08:03:15;10.60;;;7.17;;
14474;SDS011;7323;50.848;4.334;2022-12-18T08:05:41;10.70;;;7.13;;
14474;SDS011;7323;50.848;4.334;2022-12-18T08:08:06;10.77;;;6.67;;
14474;SDS011;7323;50.848;4.334;2022-12-18T08:10:32;9.67;;;6.90;;
14474;SDS011;7323;50.848;4.334;2022-12-18T08:12:58;10.50;;;7.10;;
14474;SDS011;7323;50.848;4.334;2022-12-18T08:15:23;9.13;;;6.57;;
14474;SDS011;7323;50.848;4.334;2022-12-18T08:17:49;10.97;;;7.43;;
14474;SDS011;7323;50.848;4.334;2022-12-18T08:20:15;9.73;;;6.97;;
14474;SDS011;7323;50.848;4.334;2022-12-18T08:22:41;8.97;;;6.80;;
14474;SDS011;7323;50.848;4.334;2022-12-18T08:25:07;11.03;;;7.27;;
14474;SDS011;7323;50.848;4.334;2022-12-18T08:27:33;10.60;;;7.77;;
14474;SDS011;7323;50.848;4.334;2022-12-18T08:29:59;10.20;;;7.73;;
14474;SDS011;7323;50.848;4.334;2022-12-18T08:32:25;9.53;;;6.60;;
14474;SDS011;7323;50.848;4.334;2022-12-18T08:34:51;10.23;;;7.40;;
14474;SDS011;7323;50.848;4.334;2022-12-18T08:37:17;8.17;;;6.60;;
14474;SDS011;7323;50.848;4.334;2022-12-18T08:39:43;10.07;;;7.30;;
14474;SDS011;7323;50.848;4.334;2022-12-18T08:42:08;9.67;;;6.90;;
14474;SDS011;7323;50.848;4.334;2022-12-18T08:44:53;9.53;;;6.97;;
14474;SDS011;7323;50.848;4.334;2022-12-18T08:47:18;9.40;;;6.90;;
14474;SDS011;7323;50.848;4.334;2022-12-18T08:49:44;11.73;;;7.50;;
14474;SDS011;7323;50.848;4.334;2022-12-18T08:52:10;11.03;;;8.13;;
14474;SDS011;7323;50.848;4.334;2022-12-18T08:54:36;10.40;;;7.20;;
14474;SDS011;7323;50.848;4.334;2022-12-18T08:57:02;10.93;;;7.60;;
14474;SDS011;7323;50.848;4.334;2022-12-18T08:59:27;9.50;;;6.87;;
14474;SDS011;7323;50.848;4.334;2022-12-18T09:01:53;12.27;;;8.27;;
14474;SDS011;7323;50.848;4.334;2022-12-18T09:04:21;11.50;;;8.93;;
14474;SDS011;7323;50.848;4.334;2022-12-18T09:06:47;10.13;;;7.03;;
14474;SDS011;7323;50.848;4.334;2022-12-18T09:09:12;11.60;;;8.10;;
14474;SDS011;7323;50.848;4.334;2022-12-18T09:11:38;10.07;;;7.37;;
14474;SDS011;7323;50.848;4.334;2022-12-18T09:14:04;13.13;;;8.87;;
14474;SDS011;7323;50.848;4.334;2022-12-18T09:16:30;11.20;;;7.63;;
14474;SDS011;7323;50.848;4.334;2022-12-18T09:18:57;11.73;;;8.47;;
14474;SDS011;7323;50.848;4.334;2022-12-18T09:21:28;11.33;;;7.43;;
14474;SDS011;7323;50.848;4.334;2022-12-18T09:23:57;11.97;;;8.57;;
14474;SDS011;7323;50.848;4.334;2022-12-18T09:26:24;10.07;;;7.60;;
14474;SDS011;7323;50.848;4.334;2022-12-18T09:28:51;12.80;;;7.83;;
14474;SDS011;7323;50.848;4.334;2022-12-18T09:31:19;12.33;;;8.03;;
14474;SDS011;7323;50.848;4.334;2022-12-18T09:33:46;12.90;;;9.00;;
14474;SDS011;7323;50.848;4.334;2022-12-18T09:36:13;12.07;;;9.13;;
14474;SDS011;7323;50.848;4.334;2022-12-18T09:38:42;12.87;;;8.50;;
14474;SDS011;7323;50.848;4.334;2022-12-18T09:43:49;12.73;;;8.50;;
14474;SDS011;7323;50.848;4.334;2022-12-18T09:46:19;11.37;;;8.43;;
14474;SDS011;7323;50.848;4.334;2022-12-18T09:48:57;11.47;;;8.27;;
14474;SDS011;7323;50.848;4.334;2022-12-18T09:51:27;17.13;;;12.30;;
14474;SDS011;7323;50.848;4.334;2022-12-18T09:53:59;12.03;;;8.73;;
14474;SDS011;7323;50.848;4.334;2022-12-18T09:56:34;11.00;;;8.33;;
14474;SDS011;7323;50.848;4.334;2022-12-18T09:59:03;12.47;;;8.97;;
14474;SDS011;7323;50.848;4.334;2022-12-18T10:01:32;12.40;;;9.20;;
14474;SDS011;7323;50.848;4.334;2022-12-18T10:03:58;11.27;;;9.17;;
14474;SDS011;7323;50.848;4.334;2022-12-18T10:09:08;13.60;;;8.90;;
14474;SDS011;7323;50.848;4.334;2022-12-18T10:12:08;13.73;;;9.20;;
14474;SDS011;7323;50.848;4.334;2022-12-18T10:20:34;14.40;;;9.93;;
14474;SDS011;7323;50.848;4.334;2022-12-18T10:25:59;16.00;;;10.37;;
14474;SDS011;7323;50.848;4.334;2022-12-18T10:28:31;23.93;;;11.53;;
14474;SDS011;7323;50.848;4.334;2022-12-18T10:31:00;19.43;;;11.40;;
14474;SDS011;7323;50.848;4.334;2022-12-18T10:33:29;17.23;;;12.53;;
14474;SDS011;7323;50.848;4.334;2022-12-18T10:35:57;15.50;;;11.23;;
14474;SDS011;7323;50.848;4.334;2022-12-18T10:38:27;15.30;;;11.63;;
14474;SDS011;7323;50.848;4.334;2022-12-18T10:48:27;13.27;;;9.60;;
14474;SDS011;7323;50.848;4.334;2022-12-18T10:50:54;14.57;;;10.77;;
14474;SDS011;7323;50.848;4.334;2022-12-18T10:53:23;14.63;;;10.40;;
14474;SDS011;7323;50.848;4.334;2022-12-18T10:55:52;12.70;;;9.33;;
14474;SDS011;7323;50.848;4.334;2022-12-18T10:58:24;15.07;;;10.07;;
14474;SDS011;7323;50.848;4.334;2022-12-18T11:01:01;15.83;;;10.00;;
14474;SDS011;7323;50.848;4.334;2022-12-18T11:03:33;16.67;;;10.37;;
14474;SDS011;7323;50.848;4.334;2022-12-18T11:06:04;15.83;;;11.00;;
14474;SDS011;7323;50.848;4.334;2022-12-18T11:08:30;12.73;;;9.60;;
14474;SDS011;7323;50.848;4.334;2022-12-18T11:10:55;13.63;;;10.07;;
14474;SDS011;7323;50.848;4.334;2022-12-18T11:13:25;16.57;;;10.27;;
14474;SDS011;7323;50.848;4.334;2022-12-18T11:15:52;13.03;;;9.33;;
14474;SDS011;7323;50.848;4.334;2022-12-18T11:20:59;14.60;;;10.13;;
14474;SDS011;7323;50.848;4.334;2022-12-18T11:23:32;16.97;;;10.43;;
14474;SDS011;7323;50.848;4.334;2022-12-18T11:25:59;14.80;;;10.43;;
14474;SDS011;7323;50.848;4.334;2022-12-18T11:28:34;15.83;;;11.37;;
14474;SDS011;7323;50.848;4.334;2022-12-18T11:31:25;14.80;;;10.13;;
14474;SDS011;7323;50.848;4.334;2022-12-18T11:36:21;14.13;;;10.20;;
14474;SDS011;7323;50.848;4.334;2022-12-18T11:38:48;14.80;;;9.17;;
14474;SDS011;7323;50.848;4.334;2022-12-18T11:41:37;15.77;;;11.27;;
14474;SDS011;7323;50.848;4.334;2022-12-18T11:44:31;14.33;;;9.73;;
14474;SDS011;7323;50.848;4.334;2022-12-18T11:47:13;15.23;;;10.57;;
14474;SDS011;7323;50.848;4.334;2022-12-18T11:49:42;16.37;;;11.40;;
14474;SDS011;7323;50.848;4.334;2022-12-18T11:52:09;17.00;;;11.03;;
14474;SDS011;7323;50.848;4.334;2022-12-18T11:54:50;15.10;;;10.57;;
14474;SDS011;7323;50.848;4.334;2022-12-18T11:57:34;18.30;;;11.93;;
14474;SDS011;7323;50.848;4.334;2022-12-18T12:00:27;17.47;;;11.77;;
14474;SDS011;7323;50.848;4.334;2022-12-18T12:14:08;18.13;;;12.13;;
14474;SDS011;7323;50.848;4.334;2022-12-18T12:20:22;18.33;;;12.10;;
14474;SDS011;7323;50.848;4.334;2022-12-18T12:23:20;16.47;;;11.80;;
14474;SDS011;7323;50.848;4.334;2022-12-18T12:26:07;15.80;;;11.30;;
14474;SDS011;7323;50.848;4.334;2022-12-18T12:28:52;15.33;;;11.33;;
14474;SDS011;7323;50.848;4.334;2022-12-18T12:39:39;17.27;;;11.43;;
14474;SDS011;7323;50.848;4.334;2022-12-18T12:42:26;15.37;;;10.73;;
14474;SDS011;7323;50.848;4.334;2022-12-18T12:45:16;17.53;;;12.00;;
14474;SDS011;7323;50.848;4.334;2022-12-18T12:48:02;17.77;;;11.20;;
14474;SDS011;7323;50.848;4.334;2022-12-18T12:50:33;15.37;;;10.47;;
14474;SDS011;7323;50.848;4.334;2022-12-18T12:53:00;17.67;;;11.50;;
14474;SDS011;7323;50.848;4.334;2022-12-18T12:55:30;16.07;;;11.07;;
14474;SDS011;7323;50.848;4.334;2022-12-18T13:01:04;16.50;;;11.63;;
14474;SDS011;7323;50.848;4.334;2022-12-18T13:03:48;16.93;;;11.73;;
14474;SDS011;7323;50.848;4.334;2022-12-18T13:06:30;17.53;;;11.57;;
14474;SDS011;7323;50.848;4.334;2022-12-18T13:09:02;15.90;;;12.13;;
14474;SDS011;7323;50.848;4.334;2022-12-18T13:11:47;17.00;;;11.97;;
14474;SDS011;7323;50.848;4.334;2022-12-18T13:14:38;17.73;;;11.87;;
14474;SDS011;7323;50.848;4.334;2022-12-18T13:20:03;22.17;;;12.50;;
14474;SDS011;7323;50.848;4.334;2022-12-18T13:22:39;20.23;;;12.97;;
14474;SDS011;7323;50.848;4.334;2022-12-18T13:28:05;21.80;;;13.20;;
14474;SDS011;7323;50.848;4.334;2022-12-18T13:30:51;21.40;;;14.07;;
14474;SDS011;7323;50.848;4.334;2022-12-18T13:40:57;21.43;;;14.13;;
14474;SDS011;7323;50.848;4.334;2022-12-18T13:43:31;21.83;;;14.60;;
14474;SDS011;7323;50.848;4.334;2022-12-18T13:48:53;22.90;;;15.27;;
14474;SDS011;7323;50.848;4.334;2022-12-18T13:51:29;28.00;;;15.77;;
14474;SDS011;7323;50.848;4.334;2022-12-18T13:54:20;23.67;;;15.37;;
14474;SDS011;7323;50.848;4.334;2022-12-18T13:56:47;24.87;;;15.53;;
14474;SDS011;7323;50.848;4.334;2022-12-18T13:59:26;23.30;;;16.07;;
14474;SDS011;7323;50.848;4.334;2022-12-18T14:01:59;24.40;;;16.97;;
14474;SDS011;7323;50.848;4.334;2022-12-18T14:04:31;23.43;;;16.20;;
14474;SDS011;7323;50.848;4.334;2022-12-18T14:09:29;21.87;;;16.40;;
14474;SDS011;7323;50.848;4.334;2022-12-18T14:11:58;26.00;;;17.13;;
14474;SDS011;7323;50.848;4.334;2022-12-18T14:14:44;24.23;;;16.50;;
14474;SDS011;7323;50.848;4.334;2022-12-18T14:17:15;25.90;;;17.13;;
14474;SDS011;7323;50.848;4.334;2022-12-18T14:19:50;25.70;;;16.97;;
14474;SDS011;7323;50.848;4.334;2022-12-18T14:22:26;24.70;;;15.80;;
14474;SDS011;7323;50.848;4.334;2022-12-18T14:27:41;24.57;;;16.43;;
14474;SDS011;7323;50.848;4.334;2022-12-18T14:33:05;27.80;;;16.87;;
14474;SDS011;7323;50.848;4.334;2022-12-18T14:35:54;24.50;;;16.60;;
14474;SDS011;7323;50.848;4.334;2022-12-18T14:38:28;28.40;;;17.80;;
14474;SDS011;7323;50.848;4.334;2022-12-18T14:51:52;27.03;;;17.50;;
14474;SDS011;7323;50.848;4.334;2022-12-18T14:54:20;28.50;;;18.50;;
14474;SDS011;7323;50.848;4.334;2022-12-18T14:56:48;27.73;;;16.47;;
14474;SDS011;7323;50.848;4.334;2022-12-18T14:59:22;28.10;;;18.00;;
14474;SDS011;7323;50.848;4.334;2022-12-18T15:02:00;29.20;;;17.77;;
14474;SDS011;7323;50.848;4.334;2022-12-18T15:04:41;27.87;;;17.20;;
14474;SDS011;7323;50.848;4.334;2022-12-18T15:12:33;25.07;;;16.90;;
14474;SDS011;7323;50.848;4.334;2022-12-18T15:15:00;25.97;;;17.50;;
14474;SDS011;7323;50.848;4.334;2022-12-18T15:17:26;25.53;;;16.90;;
14474;SDS011;7323;50.848;4.334;2022-12-18T15:20:00;28.53;;;17.63;;
14474;SDS011;7323;50.848;4.334;2022-12-18T15:22:29;29.30;;;18.40;;
14474;SDS011;7323;50.848;4.334;2022-12-18T15:24:59;25.10;;;16.50;;
14474;SDS011;7323;50.848;4.334;2022-12-18T15:27:28;27.10;;;17.70;;
14474;SDS011;7323;50.848;4.334;2022-12-18T15:30:11;30.73;;;16.60;;
14474;SDS011;7323;50.848;4.334;2022-12-18T15:32:47;26.03;;;17.43;;
14474;SDS011;7323;50.848;4.334;2022-12-18T15:37:41;27.03;;;17.23;;
14474;SDS011;7323;50.848;4.334;2022-12-18T15:40:08;25.80;;;16.80;;
14474;SDS011;7323;50.848;4.334;2022-12-18T15:42:40;24.50;;;15.83;;
14474;SDS011;7323;50.848;4.334;2022-12-18T15:45:25;28.63;;;16.90;;
14474;SDS011;7323;50.848;4.334;2022-12-18T15:47:55;27.53;;;16.67;;
14474;SDS011;7323;50.848;4.334;2022-12-18T15:50:20;25.77;;;17.60;;
14474;SDS011;7323;50.848;4.334;2022-12-18T15:52:47;28.57;;;18.43;;
14474;SDS011;7323;50.848;4.334;2022-12-18T15:55:16;28.30;;;17.37;;
14474;SDS011;7323;50.848;4.334;2022-12-18T15:58:02;27.57;;;16.93;;
14474;SDS011;7323;50.848;4.334;2022-12-18T16:00:29;24.77;;;17.23;;
14474;SDS011;7323;50.848;4.334;2022-12-18T16:02:57;30.73;;;16.37;;
14474;SDS011;7323;50.848;4.334;2022-12-18T16:05:24;27.17;;;17.60;;
14474;SDS011;7323;50.848;4.334;2022-12-18T16:07:53;24.57;;;17.63;;
14474;SDS011;7323;50.848;4.334;2022-12-18T16:10:19;25.33;;;15.97;;
14474;SDS011;7323;50.848;4.334;2022-12-18T16:12:47;28.17;;;16.93;;
14474;SDS011;7323;50.848;4.334;2022-12-18T16:15:13;27.03;;;16.57;;
14474;SDS011;7323;50.848;4.334;2022-12-18T16:17:44;25.77;;;17.17;;
14474;SDS011;7323;50.848;4.334;2022-12-18T16:20:20;28.73;;;17.60;;
14474;SDS011;7323;50.848;4.334;2022-12-18T16:22:48;24.53;;;16.40;;
14474;SDS011;7323;50.848;4.334;2022-12-18T16:25:22;23.07;;;15.40;;
14474;SDS011;7323;50.848;4.334;2022-12-18T16:27:49;24.03;;;16.37;;
14474;SDS011;7323;50.848;4.334;2022-12-18T16:30:17;25.67;;;16.93;;
14474;SDS011;7323;50.848;4.334;2022-12-18T16:32:45;24.67;;;15.57;;
14474;SDS011;7323;50.848;4.334;2022-12-18T16:35:11;26.00;;;16.17;;
14474;SDS011;7323;50.848;4.334;2022-12-18T16:37:47;30.83;;;19.03;;
14474;SDS011;7323;50.848;4.334;2022-12-18T16:40:17;24.63;;;15.80;;
14474;SDS011;7323;50.848;4.334;2022-12-18T16:42:46;23.10;;;15.57;;
14474;SDS011;7323;50.848;4.334;2022-12-18T16:45:22;26.53;;;17.47;;
14474;SDS011;7323;50.848;4.334;2022-12-18T16:50:51;26.40;;;16.80;;
14474;SDS011;7323;50.848;4.334;2022-12-18T16:56:31;26.23;;;15.27;;
14474;SDS011;7323;50.848;4.334;2022-12-18T16:58:57;24.33;;;16.33;;
14474;SDS011;7323;50.848;4.334;2022-12-18T17:01:25;26.30;;;16.50;;
14474;SDS011;7323;50.848;4.334;2022-12-18T17:03:57;26.33;;;16.03;;
14474;SDS011;7323;50.848;4.334;2022-12-18T17:06:32;27.80;;;16.33;;
14474;SDS011;7323;50.848;4.334;2022-12-18T17:11:35;25.43;;;15.37;;